Time;durP1;ratioP1;P1;durP2;ratioP2;P2;SDS_P1;SDS_P2;PMS_P1;PMS_P2;Temp;Humidity;BMP_temperature;BMP_pressure;BME280_temperature;BME280_humidity;BME280_pressure;Samples;Min_cycle;Max_cycle;Signal;HPM_P1;HPM_P2
2022/07/08 00:00:52;;;;;;;;;;;;;;;18.31;100.00;100185.66;5053556;28;19924;-39
2022/07/08 00:03:18;;;;;;;;;;;;;;;18.54;100.00;100184.63;5051600;28;19916;-39
2022/07/08 00:05:44;;;;;;;;;;;;;;;18.53;100.00;100189.91;5053689;28;19927;-39
2022/07/08 00:08:09;;;;;;;;;;;;;;;18.50;100.00;100190.06;5054763;28;19920;-39
2022/07/08 00:10:34;;;;;;;;;;;;;;;18.58;100.00;100185.31;5052714;28;20755;-39
2022/07/08 00:12:59;;;;;;;;;;;;;;;18.46;100.00;100189.34;5055464;28;19970;-39
2022/07/08 00:15:25;;;;;;;;;;;;;;;18.52;100.00;100193.41;5054950;28;19941;-39
2022/07/08 00:17:50;;;;;;;;;;;;;;;18.44;100.00;100190.31;5054115;28;19929;-39
2022/07/08 00:20:15;;;;;;;;;;;;;;;18.67;100.00;100187.50;5052981;28;19923;-39
2022/07/08 00:22:40;;;;;;;;;;;;;;;19.02;100.00;100179.78;5054079;28;19920;-39
2022/07/08 00:25:06;;;;;;;;;;;;;;;18.85;100.00;100179.75;5052425;28;20349;-39
2022/07/08 00:27:31;;;;;;;;;;;;;;;18.75;100.00;100185.38;5052180;28;19925;-39
2022/07/08 00:29:56;;;;;;;;;;;;;;;18.81;100.00;100189.50;5052801;28;19962;-39
2022/07/08 00:32:22;;;;;;;;;;;;;;;17.91;100.00;100182.22;5054255;28;19928;-41
2022/07/08 00:34:47;;;;;;;;;;;;;;;18.63;100.00;100185.09;5053871;28;19920;-40
2022/07/08 00:37:12;;;;;;;;;;;;;;;18.15;100.00;100184.66;5053449;28;20540;-39
2022/07/08 00:39:37;;;;;;;;;;;;;;;17.83;100.00;100191.25;5052393;28;20783;-39
2022/07/08 00:42:03;;;;;;;;;;;;;;;18.64;100.00;100187.66;5052831;28;19928;-39
2022/07/08 00:44:28;;;;;;;;;;;;;;;18.43;100.00;100184.28;5052698;28;19920;-40
2022/07/08 00:46:54;;;;;;;;;;;;;;;18.51;100.00;100189.97;5054690;28;19928;-39
2022/07/08 00:49:19;;;;;;;;;;;;;;;18.51;100.00;100189.97;5052984;28;19967;-39
2022/07/08 00:51:45;;;;;;;;;;;;;;;18.29;100.00;100189.25;5053893;28;19956;-39
2022/07/08 00:54:12;;;;;;;;;;;;;;;18.45;100.00;100192.88;5052231;28;19924;-39
2022/07/08 00:56:38;;;;;;;;;;;;;;;18.00;100.00;100183.56;5050934;28;19927;-39
2022/07/08 00:59:03;;;;;;;;;;;;;;;18.04;100.00;100186.88;5054351;28;19925;-39
2022/07/08 01:01:28;;;;;;;;;;;;;;;17.94;100.00;100182.06;5052360;28;19955;-39
2022/07/08 01:03:53;;;;;;;;;;;;;;;18.17;100.00;100188.03;5052915;28;19960;-40
2022/07/08 01:06:19;;;;;;;;;;;;;;;18.44;100.00;100180.72;5052823;28;19975;-39
2022/07/08 01:08:44;;;;;;;;;;;;;;;18.17;100.00;100190.63;5053451;28;20499;-39
2022/07/08 01:11:10;;;;;;;;;;;;;;;18.43;100.00;100184.28;5051977;28;19916;-39
2022/07/08 01:13:36;;;;;;;;;;;;;;;18.19;100.00;100187.03;5051193;28;19929;-39
2022/07/08 01:16:01;;;;;;;;;;;;;;;18.19;100.00;100194.03;5053968;28;19927;-39
2022/07/08 01:18:27;;;;;;;;;;;;;;;18.69;100.00;100188.28;5053943;28;19948;-39
2022/07/08 01:20:53;;;;;;;;;;;;;;;18.09;100.00;100191.00;5052585;28;19916;-39
2022/07/08 01:23:18;;;;;;;;;;;;;;;18.12;100.00;100190.84;5054747;28;19951;-39
2022/07/08 01:25:44;;;;;;;;;;;;;;;18.23;100.00;100190.38;5054547;28;19962;-39
2022/07/08 01:28:09;;;;;;;;;;;;;;;17.82;100.00;100197.41;5055551;28;19920;-39
2022/07/08 01:30:34;;;;;;;;;;;;;;;17.71;100.00;100196.06;5053747;28;19916;-39
2022/07/08 01:32:59;;;;;;;;;;;;;;;17.75;100.00;100196.78;5053806;28;19924;-39
2022/07/08 01:35:25;;;;;;;;;;;;;;;18.05;100.00;100193.81;5054328;28;20028;-39
2022/07/08 01:37:50;;;;;;;;;;;;;;;17.96;100.00;100189.81;5053906;28;20059;-39
2022/07/08 01:40:15;;;;;;;;;;;;;;;17.83;100.00;100199.09;5054637;28;19978;-39
2022/07/08 01:42:40;;;;;;;;;;;;;;;17.55;100.00;100197.63;5053413;28;19970;-39
2022/07/08 01:45:06;;;;;;;;;;;;;;;17.46;100.00;100196.22;5052171;28;20870;-39
2022/07/08 01:47:31;;;;;;;;;;;;;;;17.39;100.00;100193.94;5053712;28;20487;-39
2022/07/08 01:49:56;;;;;;;;;;;;;;;17.43;100.00;100198.97;5052385;28;20369;-39
2022/07/08 01:52:22;;;;;;;;;;;;;;;17.80;100.00;100199.19;5052181;28;19975;-39
2022/07/08 01:54:47;;;;;;;;;;;;;;;17.50;100.00;100196.97;5052916;28;19920;-39
2022/07/08 01:57:15;;;;;;;;;;;;;;;17.88;100.00;100191.91;5050338;28;20391;-39
2022/07/08 01:59:44;;;;;;;;;;;;;;;17.28;100.00;100190.00;5052351;28;19921;-39
2022/07/08 02:02:10;;;;;;;;;;;;;;;17.87;100.00;100191.06;5053239;28;20896;-39
2022/07/08 02:04:35;;;;;;;;;;;;;;;17.59;100.00;100191.38;5053424;28;19924;-39
2022/07/08 02:07:00;;;;;;;;;;;;;;;17.59;100.00;100187.94;5053977;28;19920;-39
2022/07/08 02:09:25;;;;;;;;;;;;;;;17.84;100.00;100185.16;5050412;28;19920;-39
2022/07/08 02:14:35;;;;;;;;;;;;;;;18.09;100.00;100185.78;5052236;28;20316;-39
2022/07/08 02:17:00;;;;;;;;;;;;;;;17.97;100.00;100181.94;5051249;28;19917;-39
2022/07/08 02:19:25;;;;;;;;;;;;;;;17.98;100.00;100188.84;5052513;28;20538;-39
2022/07/08 02:21:50;;;;;;;;;;;;;;;17.84;100.00;100183.38;5051852;28;20357;-39
2022/07/08 02:24:16;;;;;;;;;;;;;;;18.14;100.00;100182.97;5052058;28;19927;-39
2022/07/08 02:26:41;;;;;;;;;;;;;;;17.98;100.00;100183.63;5053475;28;19920;-39
2022/07/08 02:29:06;;;;;;;;;;;;;;;18.17;100.00;100190.63;5049853;28;19920;-39
2022/07/08 02:31:31;;;;;;;;;;;;;;;18.00;100.00;100193.16;5051130;28;19924;-39
2022/07/08 02:33:57;;;;;;;;;;;;;;;17.94;100.00;100197.69;5053142;28;20024;-39
2022/07/08 02:36:22;;;;;;;;;;;;;;;18.28;100.00;100193.63;5052104;28;19978;-39
2022/07/08 02:38:47;;;;;;;;;;;;;;;18.27;100.00;100196.28;5051782;28;19920;-39
2022/07/08 02:41:12;;;;;;;;;;;;;;;18.07;100.00;100191.97;5049730;28;19920;-39
2022/07/08 02:43:38;;;;;;;;;;;;;;;18.07;100.00;100191.97;5052962;28;20424;-39
2022/07/08 02:46:03;;;;;;;;;;;;;;;18.36;100.00;100193.28;5051945;28;19930;-39
2022/07/08 02:48:28;;;;;;;;;;;;;;;18.06;100.00;100192.88;5054018;28;21209;-39
2022/07/08 02:50:53;;;;;;;;;;;;;;;18.38;100.00;100191.44;5051342;28;19990;-39
2022/07/08 02:53:19;;;;;;;;;;;;;;;18.66;100.00;100183.22;5051637;28;20487;-40
2022/07/08 02:55:44;;;;;;;;;;;;;;;18.59;100.00;100192.25;5052514;28;20333;-39
2022/07/08 02:58:09;;;;;;;;;;;;;;;18.60;100.00;100191.31;5051536;28;20358;-39
2022/07/08 03:00:35;;;;;;;;;;;;;;;18.17;100.00;100204.50;5050082;28;20286;-39
2022/07/08 03:03:00;;;;;;;;;;;;;;;18.22;100.00;100204.31;5050558;28;19928;-40
2022/07/08 03:05:25;;;;;;;;;;;;;;;18.23;100.00;100200.81;5051001;28;19924;-39
2022/07/08 03:07:50;;;;;;;;;;;;;;;18.35;100.00;100199.41;5051837;28;19928;-39
2022/07/08 03:10:16;;;;;;;;;;;;;;;18.32;100.00;100203.00;5050914;28;19924;-39
2022/07/08 03:12:41;;;;;;;;;;;;;;;18.59;100.00;100205.28;5051923;28;20708;-39
2022/07/08 03:15:06;;;;;;;;;;;;;;;18.39;100.00;100209.63;5050872;28;19932;-39
2022/07/08 03:17:31;;;;;;;;;;;;;;;18.13;100.00;100210.81;5052529;28;19931;-39
2022/07/08 03:19:57;;;;;;;;;;;;;;;17.93;100.00;100211.66;5051923;28;19920;-39
2022/07/08 03:22:22;;;;;;;;;;;;;;;17.95;100.00;100215.06;5052324;28;19932;-39
2022/07/08 03:24:47;;;;;;;;;;;;;;;18.11;100.00;100217.84;5051886;28;20402;-39
2022/07/08 03:27:12;;;;;;;;;;;;;;;18.05;100.00;100214.66;5051949;28;19963;-39
2022/07/08 03:29:38;;;;;;;;;;;;;;;17.78;100.00;100217.47;5054007;28;19952;-39
2022/07/08 03:32:03;;;;;;;;;;;;;;;17.61;100.00;100214.72;5055415;28;19920;-39
2022/07/08 03:34:28;;;;;;;;;;;;;;;18.23;100.00;100211.25;5055993;28;19920;-39
2022/07/08 03:36:53;;;;;;;;;;;;;;;18.06;100.00;100214.56;5052141;28;20377;-39
2022/07/08 03:39:19;;;;;;;;;;;;;;;17.77;100.00;100218.41;5055279;28;19942;-39
2022/07/08 03:41:44;;;;;;;;;;;;;;;18.26;100.00;100224.13;5055829;28;20114;-40
2022/07/08 03:44:09;;;;;;;;;;;;;;;18.44;100.00;100216.41;5054763;28;19962;-39
2022/07/08 03:46:34;;;;;;;;;;;;;;;18.48;100.00;100220.56;5052648;28;19932;-39
2022/07/08 03:49:00;;;;;;;;;;;;;;;18.29;100.00;100218.81;5053161;28;19920;-39
2022/07/08 03:51:25;;;;;;;;;;;;;;;17.89;100.00;100224.88;5053475;28;20027;-39
2022/07/08 03:53:50;;;;;;;;;;;;;;;18.11;100.00;100220.44;5052297;28;19932;-39
2022/07/08 03:56:15;;;;;;;;;;;;;;;17.92;100.00;100230.81;5052788;28;19960;-39
2022/07/08 03:58:41;;;;;;;;;;;;;;;18.18;100.00;100221.88;5052047;28;19928;-39
2022/07/08 04:01:06;;;;;;;;;;;;;;;18.04;100.00;100228.59;5054093;28;20374;-39
2022/07/08 04:03:31;;;;;;;;;;;;;;;18.13;100.00;100226.44;5053981;28;19920;-39
2022/07/08 04:05:56;;;;;;;;;;;;;;;17.74;100.00;100228.94;5053250;28;20423;-39
2022/07/08 04:08:22;;;;;;;;;;;;;;;18.07;100.00;100225.88;5055179;28;19924;-40
2022/07/08 04:10:47;;;;;;;;;;;;;;;18.00;100.00;100237.47;5053938;28;19920;-39
2022/07/08 04:13:13;;;;;;;;;;;;;;;18.24;100.00;100241.59;5055986;28;20284;-39
2022/07/08 04:15:38;;;;;;;;;;;;;;;18.56;100.00;100236.72;5054148;28;20003;-39
2022/07/08 04:18:03;;;;;;;;;;;;;;;17.92;100.00;100246.44;5055002;28;19921;-39
2022/07/08 04:20:29;;;;;;;;;;;;;;;18.27;100.00;100246.69;5054356;28;19982;-40
2022/07/08 04:22:54;;;;;;;;;;;;;;;17.52;100.00;100258.50;5055040;28;19916;-39
2022/07/08 04:25:19;;;;;;;;;;;;;;;17.82;100.00;100263.38;5053553;28;19929;-39
2022/07/08 04:27:45;;;;;;;;;;;;;;;18.02;100.00;100259.94;5054264;28;19920;-40
2022/07/08 04:30:10;;;;;;;;;;;;;;;18.06;100.00;100263.25;5051816;28;19924;-40
2022/07/08 04:32:35;;;;;;;;;;;;;;;17.66;100.00;100273.56;5054232;28;19932;-39
2022/07/08 04:35:01;;;;;;;;;;;;;;;17.78;100.00;100270.44;5054421;28;19920;-39
2022/07/08 04:37:26;;;;;;;;;;;;;;;17.77;100.00;100273.13;5055650;28;19970;-39
2022/07/08 04:39:52;;;;;;;;;;;;;;;17.76;100.00;100277.47;5053153;28;19927;-39
2022/07/08 04:42:17;;;;;;;;;;;;;;;17.62;100.00;100281.56;5055685;28;20302;-39
2022/07/08 04:44:42;;;;;;;;;;;;;;;18.00;100.00;100280.03;5054483;28;19925;-39
2022/07/08 04:47:07;;;;;;;;;;;;;;;18.30;100.00;100285.66;5055686;28;19967;-39
2022/07/08 04:49:33;;;;;;;;;;;;;;;18.12;100.00;100284.69;5054453;28;20072;-39
2022/07/08 04:51:58;;;;;;;;;;;;;;;18.06;100.00;100281.50;5053889;28;19920;-39
2022/07/08 04:54:24;;;;;;;;;;;;;;;17.99;100.00;100293.94;5055679;28;19920;-39
2022/07/08 04:56:49;;;;;;;;;;;;;;;18.23;100.00;100297.28;5053346;28;20662;-39
2022/07/08 04:59:14;;;;;;;;;;;;;;;17.90;100.00;100297.81;5052963;28;19975;-39
2022/07/08 05:01:39;;;;;;;;;;;;;;;18.02;100.00;100292.97;5051676;28;20011;-39
2022/07/08 05:04:05;;;;;;;;;;;;;;;17.85;100.00;100297.13;5053685;28;19916;-39
2022/07/08 05:06:30;;;;;;;;;;;;;;;17.90;100.00;100291.72;5055715;28;19921;-39
2022/07/08 05:08:55;;;;;;;;;;;;;;;18.11;100.00;100292.56;5054557;28;19973;-39
2022/07/08 05:11:20;;;;;;;;;;;;;;;17.86;100.00;100293.63;5054113;28;19920;-39
2022/07/08 05:13:46;;;;;;;;;;;;;;;18.02;100.00;100298.19;5054202;28;19932;-40
2022/07/08 05:16:11;;;;;;;;;;;;;;;17.60;100.00;100301.63;5055931;28;19926;-40
2022/07/08 05:18:36;;;;;;;;;;;;;;;18.28;100.00;100297.94;5052940;28;19952;-39
2022/07/08 05:21:01;;;;;;;;;;;;;;;18.12;100.00;100305.56;5053114;28;20578;-39
2022/07/08 05:23:27;;;;;;;;;;;;;;;17.94;100.00;100304.56;5051730;28;19959;-39
2022/07/08 05:25:52;;;;;;;;;;;;;;;17.88;100.00;100302.22;5046537;28;19959;-39
2022/07/08 05:28:17;;;;;;;;;;;;;;;17.91;100.00;100303.88;5052878;28;20048;-40
2022/07/08 05:30:42;;;;;;;;;;;;;;;17.72;100.00;100307.19;5052837;28;19931;-40
2022/07/08 05:33:08;;;;;;;;;;;;;;;18.03;100.00;100302.50;5051893;28;20023;-40
2022/07/08 05:35:33;;;;;;;;;;;;;;;17.77;100.00;100307.84;5050599;28;20263;-40
2022/07/08 05:37:58;;;;;;;;;;;;;;;18.07;100.00;100296.25;5052011;28;19971;-40
2022/07/08 05:40:23;;;;;;;;;;;;;;;18.11;100.00;100297.78;5053437;28;19974;-40
2022/07/08 05:42:49;;;;;;;;;;;;;;;18.25;100.00;100298.06;5052141;28;19939;-41
2022/07/08 05:45:14;;;;;;;;;;;;;;;18.04;100.00;100296.34;5045070;28;19925;-40
2022/07/08 05:47:39;;;;;;;;;;;;;;;18.23;100.00;100302.50;5047720;28;19920;-40
2022/07/08 05:50:05;;;;;;;;;;;;;;;18.00;100.00;100305.25;5051351;28;19978;-40
2022/07/08 05:52:31;;;;;;;;;;;;;;;17.86;100.00;100311.00;5050354;28;20381;-41
2022/07/08 05:54:56;;;;;;;;;;;;;;;18.43;100.00;100313.81;5048533;28;19966;-41
2022/07/08 05:57:21;;;;;;;;;;;;;;;18.38;100.00;100317.50;5050886;28;19995;-41
2022/07/08 05:59:46;;;;;;;;;;;;;;;18.63;100.00;100310.34;5051949;28;19924;-40
2022/07/08 06:02:12;;;;;;;;;;;;;;;18.83;100.00;100314.72;5051073;28;20289;-41
2022/07/08 06:04:37;;;;;;;;;;;;;;;18.63;100.00;100318.16;5052032;28;20244;-40
2022/07/08 06:07:02;;;;;;;;;;;;;;;18.05;100.00;100324.13;5050956;28;19921;-40
2022/07/08 06:09:28;;;;;;;;;;;;;;;18.23;100.00;100323.38;5052068;28;20442;-40
2022/07/08 06:11:53;;;;;;;;;;;;;;;18.19;100.00;100337.44;5052406;28;20520;-40
2022/07/08 06:14:18;;;;;;;;;;;;;;;18.04;100.00;100338.06;5052422;28;19924;-40
2022/07/08 06:16:47;;;;;;;;;;;;;;;17.95;100.00;100332.34;5051020;28;19958;-40
2022/07/08 06:19:12;;;;;;;;;;;;;;;18.02;100.00;100334.66;5049471;28;19936;-40
2022/07/08 06:21:37;;;;;;;;;;;;;;;18.53;100.00;100331.63;5050916;28;19921;-40
2022/07/08 06:24:03;;;;;;;;;;;;;;;18.03;100.00;100341.59;5050610;28;19928;-40
2022/07/08 06:26:29;;;;;;;;;;;;;;;18.53;100.00;100333.38;5051243;28;19946;-40
2022/07/08 06:28:54;;;;;;;;;;;;;;;18.85;100.00;100332.00;5048986;28;19931;-40
2022/07/08 06:31:19;;;;;;;;;;;;;;;19.13;100.00;100331.56;5050711;28;20003;-40
2022/07/08 06:33:44;;;;;;;;;;;;;;;19.02;100.00;100329.47;5050463;28;20499;-40
2022/07/08 06:36:09;;;;;;;;;;;;;;;19.10;100.00;100325.66;5046452;28;20460;-40
2022/07/08 06:38:35;;;;;;;;;;;;;;;18.98;100.00;100327.06;5049686;28;19993;-40
2022/07/08 06:41:00;;;;;;;;;;;;;;;18.99;100.00;100328.75;5050712;28;19931;-40
2022/07/08 06:43:25;;;;;;;;;;;;;;;19.15;100.00;100323.69;5050261;28;19921;-40
2022/07/08 06:45:50;;;;;;;;;;;;;;;18.87;100.00;100324.09;5038774;28;19932;-40
2022/07/08 06:48:16;;;;;;;;;;;;;;;19.31;100.00;100329.03;5044331;28;19967;-40
2022/07/08 06:50:41;;;;;;;;;;;;;;;19.92;100.00;100322.66;5048305;28;20731;-40
2022/07/08 06:53:06;;;;;;;;;;;;;;;19.16;100.00;100333.22;5049553;28;20526;-40
2022/07/08 06:55:31;;;;;;;;;;;;;;;19.47;100.00;100334.38;5051127;28;20425;-40
2022/07/08 06:57:57;;;;;;;;;;;;;;;19.75;100.00;100329.56;5049904;28;21023;-41
2022/07/08 07:00:23;;;;;;;;;;;;;;;19.79;100.00;100335.47;5048985;28;19971;-40
2022/07/08 07:02:48;;;;;;;;;;;;;;;20.31;100.00;100330.25;5053454;28;19916;-40
2022/07/08 07:05:13;;;;;;;;;;;;;;;20.85;100.00;100328.34;5053400;28;20719;-40
2022/07/08 07:07:39;;;;;;;;;;;;;;;20.98;100.00;100322.44;5053914;28;19921;-40
2022/07/08 07:10:05;;;;;;;;;;;;;;;19.75;100.00;100329.56;5053263;28;19928;-40
2022/07/08 07:12:30;;;;;;;;;;;;;;;19.99;100.00;100326.66;5054917;28;20352;-40
2022/07/08 07:14:55;;;;;;;;;;;;;;;19.42;100.00;100338.06;5054192;28;20266;-40
2022/07/08 07:17:21;;;;;;;;;;;;;;;20.59;100.00;100329.69;5055862;28;19920;-41
2022/07/08 07:19:47;;;;;;;;;;;;;;;20.75;100.00;100321.03;5054066;28;20805;-40
2022/07/08 07:22:12;;;;;;;;;;;;;;;20.11;100.00;100331.25;5051897;28;19970;-40
2022/07/08 07:24:37;;;;;;;;;;;;;;;20.08;100.00;100334.03;5050450;28;20015;-41
2022/07/08 07:27:03;;;;;;;;;;;;;;;20.40;100.00;100329.78;5053298;28;19967;-40
2022/07/08 07:29:28;;;;;;;;;;;;;;;20.93;100.00;100324.44;5055194;28;19934;-40
2022/07/08 07:31:53;;;;;;;;;;;;;;;20.49;100.00;100331.09;5051112;28;20510;-40
2022/07/08 07:34:19;;;;;;;;;;;;;;;19.71;100.00;100353.31;5055173;28;20882;-40
2022/07/08 07:36:44;;;;;;;;;;;;;;;19.66;100.00;100350.88;5053364;28;20399;-40
2022/07/08 07:39:09;;;;;;;;;;;;;;;19.51;100.00;100355.06;5055313;28;19920;-40
2022/07/08 07:41:35;;;;;;;;;;;;;;;20.03;100.00;100355.19;5035913;28;19983;-40
2022/07/08 07:44:01;;;;;;;;;;;;;;;20.11;100.00;100349.56;5052878;28;20401;-40
2022/07/08 07:46:26;;;;;;;;;;;;;;;20.99;100.00;100345.09;5051717;28;19924;-40
2022/07/08 07:48:51;;;;;;;;;;;;;;;21.90;99.05;100333.88;5054668;28;19927;-40
2022/07/08 07:51:17;;;;;;;;;;;;;;;22.80;96.25;100320.72;5055401;28;20471;-40
2022/07/08 07:53:42;;;;;;;;;;;;;;;21.70;92.94;100327.16;5053483;28;19929;-40
2022/07/08 07:56:07;;;;;;;;;;;;;;;21.27;100.00;100333.94;5055475;28;20369;-40
2022/07/08 07:58:33;;;;;;;;;;;;;;;21.49;100.00;100325.78;5051851;28;20005;-41
2022/07/08 08:00:58;;;;;;;;;;;;;;;22.28;96.75;100322.09;5055493;28;19927;-40
2022/07/08 08:03:23;;;;;;;;;;;;;;;21.68;96.91;100334.25;5053134;28;19951;-40
2022/07/08 08:05:48;;;;;;;;;;;;;;;22.64;95.67;100329.53;5055009;28;19920;-40
2022/07/08 08:08:14;;;;;;;;;;;;;;;23.23;90.05;100325.97;5053831;28;20375;-40
2022/07/08 08:10:39;;;;;;;;;;;;;;;22.70;92.64;100330.97;5049769;28;19921;-40
2022/07/08 08:13:04;;;;;;;;;;;;;;;23.10;91.63;100331.13;5053890;28;19924;-40
2022/07/08 08:15:30;;;;;;;;;;;;;;;23.73;85.60;100320.06;5052526;28;19927;-40
2022/07/08 08:17:56;;;;;;;;;;;;;;;23.07;88.95;100336.59;5042433;28;19921;-40
2022/07/08 08:20:22;;;;;;;;;;;;;;;23.52;86.48;100331.97;5051235;28;19966;-41
2022/07/08 08:22:47;;;;;;;;;;;;;;;24.14;83.38;100329.63;5054540;28;19916;-41
2022/07/08 08:25:12;;;;;;;;;;;;;;;24.26;82.55;100332.38;5053835;28;19927;-40
2022/07/08 08:27:38;;;;;;;;;;;;;;;24.35;84.95;100344.94;5052804;28;19927;-40
2022/07/08 08:30:04;;;;;;;;;;;;;;;22.28;84.14;100356.22;5052417;28;19943;-40
2022/07/08 08:32:29;;;;;;;;;;;;;;;23.15;89.36;100347.47;5052892;28;20026;-40
2022/07/08 08:34:54;;;;;;;;;;;;;;;23.00;89.50;100344.00;5050709;28;19925;-40
2022/07/08 08:37:23;;;;;;;;;;;;;;;22.28;88.65;100354.47;5053960;28;19959;-41
2022/07/08 08:39:48;;;;;;;;;;;;;;;21.37;89.39;100365.72;5049684;28;20369;-40
2022/07/08 08:42:14;;;;;;;;;;;;;;;21.51;92.29;100378.97;5054041;28;19924;-40
2022/07/08 08:44:39;;;;;;;;;;;;;;;22.09;89.19;100366.94;5052008;28;19922;-40
2022/07/08 08:47:04;;;;;;;;;;;;;;;24.26;83.87;100349.03;5052673;28;19928;-40
2022/07/08 08:49:31;;;;;;;;;;;;;;;22.95;88.68;100370.53;5049757;28;20031;-40
2022/07/08 08:51:56;;;;;;;;;;;;;;;21.98;95.61;100385.91;5051283;28;20439;-40
2022/07/08 08:54:21;;;;;;;;;;;;;;;22.48;91.95;100366.38;5051969;28;19936;-40
2022/07/08 08:56:47;;;;;;;;;;;;;;;23.95;86.17;100356.34;5049802;28;19917;-41
2022/07/08 08:59:13;;;;;;;;;;;;;;;23.82;81.63;100359.91;5052605;28;20492;-40
2022/07/08 09:01:38;;;;;;;;;;;;;;;25.79;77.03;100342.63;5050971;28;20392;-40
2022/07/08 09:04:05;;;;;;;;;;;;;;;23.15;84.08;100355.38;5052064;28;19927;-41
2022/07/08 09:06:32;;;;;;;;;;;;;;;23.58;82.73;100352.59;5049457;28;19924;-41
2022/07/08 09:08:57;;;;;;;;;;;;;;;25.60;76.88;100335.25;5050944;28;19920;-41
2022/07/08 09:11:22;;;;;;;;;;;;;;;25.95;74.55;100330.97;5052097;28;19963;-41
2022/07/08 09:14:06;;;;;;;;;;;;;;;26.23;78.04;100345.59;5052799;28;19927;-40
2022/07/08 09:16:32;;;;;;;;;;;;;;;26.55;73.12;100327.28;5050805;28;20628;-40
2022/07/08 09:19:10;;;;;;;;;;;;;;;25.66;78.94;100341.88;5049539;28;19921;-40
2022/07/08 09:21:36;;;;;;;;;;;;;;;22.78;86.71;100365.47;5052654;28;20412;-38
2022/07/08 09:24:15;;;;;;;;;;;;;;;22.78;88.78;100357.59;5053801;28;19916;-40
2022/07/08 09:26:41;;;;;;;;;;;;;;;23.55;82.41;100352.81;5050822;28;19916;-40
2022/07/08 09:29:07;;;;;;;;;;;;;;;26.33;75.72;100333.34;5051405;28;19932;-40
2022/07/08 09:31:34;;;;;;;;;;;;;;;24.90;79.53;100327.13;5052902;28;19916;-41
2022/07/08 09:34:05;;;;;;;;;;;;;;;25.49;76.80;100331.72;5053266;28;20449;-40
2022/07/08 09:36:30;;;;;;;;;;;;;;;25.78;73.65;100333.06;5050655;28;19928;-40
2022/07/08 09:38:55;;;;;;;;;;;;;;;25.72;73.37;100336.13;5020292;28;20557;-40
2022/07/08 09:41:21;;;;;;;;;;;;;;;25.62;76.12;100329.88;5048452;28;19924;-40
2022/07/08 09:43:48;;;;;;;;;;;;;;;26.04;71.45;100330.28;5052799;28;19943;-40
2022/07/08 09:46:13;;;;;;;;;;;;;;;24.86;76.45;100337.06;5052744;28;19932;-40
2022/07/08 09:48:38;;;;;;;;;;;;;;;25.78;75.45;100325.13;5050283;28;19920;-41
2022/07/08 09:51:10;;;;;;;;;;;;;;;26.76;69.41;100322.13;5051232;28;19916;-41
2022/07/08 09:53:36;;;;;;;;;;;;;;;28.82;59.43;100312.22;5052348;28;19931;-41
2022/07/08 09:56:02;;;;;;;;;;;;;;;25.19;72.95;100335.63;5053360;28;19927;-41
2022/07/08 09:58:28;;;;;;;;;;;;;;;25.24;74.38;100338.78;5053605;28;19920;-40
2022/07/08 10:00:54;;;;;;;;;;;;;;;25.17;78.21;100329.59;5051957;28;19920;-40
2022/07/08 10:03:22;;;;;;;;;;;;;;;25.09;78.08;100324.00;5052736;28;21593;-39
2022/07/08 10:05:47;;;;;;;;;;;;;;;26.96;77.24;100320.56;5053188;28;19920;-39
2022/07/08 10:08:13;;;;;;;;;;;;;;;25.61;66.04;100323.75;5052595;28;20365;-39
2022/07/08 10:10:39;;;;;;;;;;;;;;;27.53;66.62;100308.06;5051034;28;20081;-40
2022/07/08 10:13:04;;;;;;;;;;;;;;;25.11;72.07;100324.75;5053165;28;19935;-40
2022/07/08 10:15:31;;;;;;;;;;;;;;;26.13;71.65;100312.91;5047554;28;19920;-40
2022/07/08 10:17:58;;;;;;;;;;;;;;;26.57;68.03;100320.09;5051016;28;19924;-39
2022/07/08 10:20:24;;;;;;;;;;;;;;;24.72;79.01;100323.97;5049820;28;20370;-40
2022/07/08 10:22:50;;;;;;;;;;;;;;;24.23;81.91;100328.19;5050762;28;19995;-39
2022/07/08 10:25:16;;;;;;;;;;;;;;;25.62;75.74;100327.22;5049545;28;20134;-39
2022/07/08 10:27:41;;;;;;;;;;;;;;;25.31;75.67;100332.09;5050791;28;19920;-39
2022/07/08 10:30:16;;;;;;;;;;;;;;;26.18;75.66;100316.88;5049170;28;19920;-39
2022/07/08 10:32:44;;;;;;;;;;;;;;;25.31;76.32;100332.09;5052563;28;19920;-40
2022/07/08 10:35:10;;;;;;;;;;;;;;;24.62;80.30;100329.06;5050921;28;19974;-40
2022/07/08 10:37:56;;;;;;;;;;;;;;;25.98;74.34;100325.47;5047063;28;19924;-40
2022/07/08 10:40:50;;;;;;;;;;;;;;;26.35;68.23;100328.78;5051353;28;20301;-40
2022/07/08 10:43:18;;;;;;;;;;;;;;;28.11;65.56;100315.63;5042434;28;19940;-40
2022/07/08 10:46:02;;;;;;;;;;;;;;;27.41;65.22;100333.69;5052855;28;20650;-40
2022/07/08 10:48:40;;;;;;;;;;;;;;;27.02;67.80;100322.69;5051906;28;19996;-39
2022/07/08 10:51:05;;;;;;;;;;;;;;;28.66;65.03;100310.91;5050979;28;20043;-39
2022/07/08 10:53:50;;;;;;;;;;;;;;;26.43;72.41;100328.19;5051921;28;20358;-39
2022/07/08 10:56:35;;;;;;;;;;;;;;;27.17;66.53;100325.09;5051463;28;19920;-40
2022/07/08 10:59:18;;;;;;;;;;;;;;;27.90;64.04;100324.41;5050217;28;19981;-40
2022/07/08 11:01:44;;;;;;;;;;;;;;;27.73;68.73;100327.56;5050102;28;20757;-40
2022/07/08 11:04:20;;;;;;;;;;;;;;;28.98;63.53;100316.03;5050814;28;19927;-40
2022/07/08 11:06:45;;;;;;;;;;;;;;;29.09;58.96;100317.75;5051852;28;20005;-40
2022/07/08 11:09:10;;;;;;;;;;;;;;;25.55;75.92;100333.91;5049704;28;20011;-40
2022/07/08 11:11:36;;;;;;;;;;;;;;;25.31;78.83;100331.25;5049879;28;19982;-39
2022/07/08 11:14:02;;;;;;;;;;;;;;;26.80;72.46;100328.00;5049785;28;19935;-39
2022/07/08 11:16:30;;;;;;;;;;;;;;;27.33;74.36;100330.84;5050431;28;19956;-40
2022/07/08 11:18:55;;;;;;;;;;;;;;;27.42;68.11;100323.97;5051887;28;19920;-39
2022/07/08 11:21:21;;;;;;;;;;;;;;;27.37;59.63;100318.19;5051574;28;19921;-40
2022/07/08 11:23:46;;;;;;;;;;;;;;;29.26;61.47;100316.25;5049927;28;19920;-39
2022/07/08 11:26:11;;;;;;;;;;;;;;;28.53;61.09;100320.88;5050901;28;19928;-40
2022/07/08 11:28:38;;;;;;;;;;;;;;;27.98;65.87;100325.56;5049635;28;20405;-40
2022/07/08 11:31:03;;;;;;;;;;;;;;;28.00;62.64;100320.97;5049780;28;19924;-39
2022/07/08 11:33:42;;;;;;;;;;;;;;;28.87;61.34;100313.47;5048069;28;19930;-40
2022/07/08 11:36:11;;;;;;;;;;;;;;;26.97;70.55;100330.16;5044794;28;20065;-39
2022/07/08 11:38:37;;;;;;;;;;;;;;;26.19;76.47;100323.84;5054917;28;20471;-39
2022/07/08 11:41:02;;;;;;;;;;;;;;;26.09;76.24;100328.13;5052745;28;20027;-40
2022/07/08 11:43:28;;;;;;;;;;;;;;;27.04;72.61;100319.94;5052363;28;19916;-39
2022/07/08 11:45:53;;;;;;;;;;;;;;;26.13;75.18;100323.47;5050097;28;19970;-39
2022/07/08 11:48:18;;;;;;;;;;;;;;;26.15;78.03;100321.56;5052932;28;20015;-39
2022/07/08 11:50:47;;;;;;;;;;;;;;;28.11;69.13;100312.97;5056003;28;19917;-39
2022/07/08 11:53:22;;;;;;;;;;;;;;;27.77;68.83;100302.53;5057917;28;19920;-39
2022/07/08 11:55:47;;;;;;;;;;;;;;;26.91;73.66;100315.63;5054781;28;19916;-39
2022/07/08 11:58:20;;;;;;;;;;;;;;;26.07;73.22;100316.88;5056939;28;20405;-39
2022/07/08 12:00:46;;;;;;;;;;;;;;;26.85;74.36;100310.81;5051267;28;20380;-40
2022/07/08 12:03:11;;;;;;;;;;;;;;;25.86;77.76;100321.91;5055324;28;19920;-39
2022/07/08 12:05:36;;;;;;;;;;;;;;;26.66;77.29;100316.72;5053990;28;20526;-39
2022/07/08 12:08:09;;;;;;;;;;;;;;;26.51;77.26;100312.59;5055185;28;21162;-39
2022/07/08 12:10:34;;;;;;;;;;;;;;;26.83;72.29;100307.47;5054444;28;20006;-39
2022/07/08 12:12:59;;;;;;;;;;;;;;;27.67;71.94;100306.91;5056025;28;19999;-39
2022/07/08 12:15:32;;;;;;;;;;;;;;;28.03;69.02;100302.16;5054880;28;20003;-39
2022/07/08 12:17:57;;;;;;;;;;;;;;;27.42;71.38;100308.94;5049842;28;19927;-39
2022/07/08 12:20:32;;;;;;;;;;;;;;;27.61;73.58;100304.78;5054660;28;19920;-39
2022/07/08 12:22:58;;;;;;;;;;;;;;;27.11;71.35;100307.91;5042893;28;19921;-39
2022/07/08 12:25:23;;;;;;;;;;;;;;;26.73;76.99;100305.66;5055560;28;19943;-39
2022/07/08 12:27:59;;;;;;;;;;;;;;;28.77;69.86;100289.59;5054488;28;20366;-39